sensor_id;sensor_type;location;lat;lon;timestamp;P1;durP1;ratioP1;P2;durP2;ratioP2
64157;SDS011;50449;51.528;5.076;2023-06-10T00:00:43;143.82;;;137.30;;
64157;SDS011;50449;51.528;5.076;2023-06-10T00:03:09;145.15;;;138.57;;
64157;SDS011;50449;51.528;5.076;2023-06-10T00:05:35;145.30;;;138.30;;
64157;SDS011;50449;51.528;5.076;2023-06-10T00:08:03;150.32;;;143.63;;
64157;SDS011;50449;51.528;5.076;2023-06-10T00:10:32;143.00;;;136.30;;
64157;SDS011;50449;51.528;5.076;2023-06-10T00:12:59;143.60;;;137.18;;
64157;SDS011;50449;51.528;5.076;2023-06-10T00:15:26;149.02;;;142.35;;
64157;SDS011;50449;51.528;5.076;2023-06-10T00:17:51;150.75;;;143.73;;
64157;SDS011;50449;51.528;5.076;2023-06-10T00:20:19;146.95;;;140.15;;
64157;SDS011;50449;51.528;5.076;2023-06-10T00:22:47;146.27;;;139.57;;
64157;SDS011;50449;51.528;5.076;2023-06-10T00:25:13;146.65;;;139.82;;
64157;SDS011;50449;51.528;5.076;2023-06-10T00:27:39;147.40;;;140.68;;
64157;SDS011;50449;51.528;5.076;2023-06-10T00:30:05;144.40;;;137.80;;
64157;SDS011;50449;51.528;5.076;2023-06-10T00:32:34;148.02;;;141.32;;
64157;SDS011;50449;51.528;5.076;2023-06-10T00:35:01;144.15;;;137.50;;
64157;SDS011;50449;51.528;5.076;2023-06-10T00:37:27;142.02;;;135.57;;
64157;SDS011;50449;51.528;5.076;2023-06-10T00:39:53;141.10;;;134.82;;
64157;SDS011;50449;51.528;5.076;2023-06-10T00:42:19;143.10;;;136.40;;
64157;SDS011;50449;51.528;5.076;2023-06-10T00:44:44;141.32;;;134.73;;
64157;SDS011;50449;51.528;5.076;2023-06-10T00:47:10;140.77;;;134.50;;
64157;SDS011;50449;51.528;5.076;2023-06-10T00:49:35;141.93;;;135.60;;
64157;SDS011;50449;51.528;5.076;2023-06-10T00:52:02;142.75;;;136.43;;
64157;SDS011;50449;51.528;5.076;2023-06-10T00:54:29;145.98;;;139.07;;
64157;SDS011;50449;51.528;5.076;2023-06-10T00:56:55;147.48;;;140.88;;
64157;SDS011;50449;51.528;5.076;2023-06-10T00:59:21;142.68;;;136.38;;
64157;SDS011;50449;51.528;5.076;2023-06-10T01:01:47;141.45;;;135.20;;
64157;SDS011;50449;51.528;5.076;2023-06-10T01:04:13;140.90;;;134.68;;
64157;SDS011;50449;51.528;5.076;2023-06-10T01:11:46;143.70;;;137.23;;
64157;SDS011;50449;51.528;5.076;2023-06-10T01:14:16;141.00;;;134.70;;
64157;SDS011;50449;51.528;5.076;2023-06-10T01:16:42;138.65;;;132.40;;
64157;SDS011;50449;51.528;5.076;2023-06-10T01:21:37;138.23;;;131.85;;
64157;SDS011;50449;51.528;5.076;2023-06-10T01:24:04;139.32;;;132.82;;
64157;SDS011;50449;51.528;5.076;2023-06-10T01:26:33;138.57;;;131.95;;
64157;SDS011;50449;51.528;5.076;2023-06-10T01:29:03;136.40;;;130.10;;
64157;SDS011;50449;51.528;5.076;2023-06-10T01:34:13;136.27;;;130.02;;
64157;SDS011;50449;51.528;5.076;2023-06-10T01:36:41;142.63;;;136.02;;
64157;SDS011;50449;51.528;5.076;2023-06-10T01:39:10;135.57;;;129.38;;
64157;SDS011;50449;51.528;5.076;2023-06-10T01:41:38;137.02;;;130.90;;
64157;SDS011;50449;51.528;5.076;2023-06-10T01:44:04;139.18;;;132.77;;
64157;SDS011;50449;51.528;5.076;2023-06-10T01:46:30;136.93;;;130.32;;
64157;SDS011;50449;51.528;5.076;2023-06-10T01:48:55;139.55;;;132.80;;
64157;SDS011;50449;51.528;5.076;2023-06-10T01:51:21;138.15;;;131.80;;
64157;SDS011;50449;51.528;5.076;2023-06-10T01:53:46;136.43;;;130.27;;
64157;SDS011;50449;51.528;5.076;2023-06-10T01:56:12;133.90;;;127.85;;
64157;SDS011;50449;51.528;5.076;2023-06-10T01:58:42;135.02;;;128.52;;
64157;SDS011;50449;51.528;5.076;2023-06-10T02:01:08;136.02;;;129.45;;
64157;SDS011;50449;51.528;5.076;2023-06-10T02:03:34;141.43;;;132.52;;
64157;SDS011;50449;51.528;5.076;2023-06-10T02:06:00;137.18;;;130.13;;
64157;SDS011;50449;51.528;5.076;2023-06-10T02:08:25;137.25;;;130.75;;
64157;SDS011;50449;51.528;5.076;2023-06-10T02:10:52;138.60;;;132.35;;
64157;SDS011;50449;51.528;5.076;2023-06-10T02:13:18;136.60;;;130.40;;
64157;SDS011;50449;51.528;5.076;2023-06-10T02:15:43;136.57;;;130.25;;
64157;SDS011;50449;51.528;5.076;2023-06-10T02:18:08;135.77;;;129.27;;
64157;SDS011;50449;51.528;5.076;2023-06-10T02:20:35;135.35;;;129.32;;
64157;SDS011;50449;51.528;5.076;2023-06-10T02:23:00;136.70;;;129.75;;
64157;SDS011;50449;51.528;5.076;2023-06-10T02:25:26;135.75;;;129.55;;
64157;SDS011;50449;51.528;5.076;2023-06-10T02:27:51;132.25;;;126.30;;
64157;SDS011;50449;51.528;5.076;2023-06-10T02:30:17;139.15;;;132.85;;
64157;SDS011;50449;51.528;5.076;2023-06-10T02:32:42;131.07;;;125.10;;
64157;SDS011;50449;51.528;5.076;2023-06-10T02:35:12;132.38;;;126.28;;
64157;SDS011;50449;51.528;5.076;2023-06-10T02:37:38;133.23;;;127.15;;
64157;SDS011;50449;51.528;5.076;2023-06-10T02:40:04;137.07;;;130.48;;
64157;SDS011;50449;51.528;5.076;2023-06-10T02:42:31;129.43;;;123.55;;
64157;SDS011;50449;51.528;5.076;2023-06-10T02:44:56;132.85;;;126.63;;
64157;SDS011;50449;51.528;5.076;2023-06-10T02:47:21;132.90;;;126.97;;
64157;SDS011;50449;51.528;5.076;2023-06-10T02:49:47;136.50;;;130.10;;
64157;SDS011;50449;51.528;5.076;2023-06-10T02:52:12;132.95;;;126.85;;
64157;SDS011;50449;51.528;5.076;2023-06-10T02:54:38;128.85;;;122.95;;
64157;SDS011;50449;51.528;5.076;2023-06-10T02:57:03;136.73;;;129.75;;
64157;SDS011;50449;51.528;5.076;2023-06-10T02:59:30;128.13;;;122.38;;
64157;SDS011;50449;51.528;5.076;2023-06-10T03:01:55;136.00;;;129.65;;
64157;SDS011;50449;51.528;5.076;2023-06-10T03:04:21;135.93;;;129.65;;
64157;SDS011;50449;51.528;5.076;2023-06-10T03:06:48;130.90;;;124.50;;
64157;SDS011;50449;51.528;5.076;2023-06-10T03:09:14;130.25;;;124.25;;
64157;SDS011;50449;51.528;5.076;2023-06-10T03:11:39;128.40;;;122.28;;
64157;SDS011;50449;51.528;5.076;2023-06-10T03:14:05;130.50;;;124.40;;
64157;SDS011;50449;51.528;5.076;2023-06-10T03:16:30;131.18;;;125.10;;
64157;SDS011;50449;51.528;5.076;2023-06-10T03:18:56;129.05;;;123.15;;
64157;SDS011;50449;51.528;5.076;2023-06-10T03:21:21;128.80;;;122.88;;
64157;SDS011;50449;51.528;5.076;2023-06-10T03:23:47;129.45;;;122.97;;
64157;SDS011;50449;51.528;5.076;2023-06-10T03:26:13;127.93;;;121.63;;
64157;SDS011;50449;51.528;5.076;2023-06-10T03:28:39;129.25;;;123.25;;
64157;SDS011;50449;51.528;5.076;2023-06-10T03:31:05;130.73;;;124.68;;
64157;SDS011;50449;51.528;5.076;2023-06-10T03:33:30;128.75;;;122.60;;
64157;SDS011;50449;51.528;5.076;2023-06-10T03:35:56;126.72;;;120.80;;
64157;SDS011;50449;51.528;5.076;2023-06-10T03:38:21;125.15;;;119.30;;
64157;SDS011;50449;51.528;5.076;2023-06-10T03:40:47;128.77;;;122.28;;
64157;SDS011;50449;51.528;5.076;2023-06-10T03:43:12;128.27;;;122.22;;
64157;SDS011;50449;51.528;5.076;2023-06-10T03:45:38;128.55;;;121.95;;
64157;SDS011;50449;51.528;5.076;2023-06-10T03:48:03;129.00;;;122.55;;
64157;SDS011;50449;51.528;5.076;2023-06-10T03:50:29;126.53;;;120.75;;
64157;SDS011;50449;51.528;5.076;2023-06-10T03:52:55;127.28;;;121.28;;
64157;SDS011;50449;51.528;5.076;2023-06-10T03:55:20;127.80;;;121.72;;
64157;SDS011;50449;51.528;5.076;2023-06-10T03:57:47;122.78;;;117.18;;
64157;SDS011;50449;51.528;5.076;2023-06-10T04:00:13;128.15;;;122.25;;
64157;SDS011;50449;51.528;5.076;2023-06-10T04:02:40;125.30;;;119.40;;
64157;SDS011;50449;51.528;5.076;2023-06-10T04:05:13;130.48;;;124.47;;
64157;SDS011;50449;51.528;5.076;2023-06-10T04:07:40;127.63;;;121.22;;
64157;SDS011;50449;51.528;5.076;2023-06-10T04:10:07;130.80;;;124.72;;
64157;SDS011;50449;51.528;5.076;2023-06-10T04:12:33;127.32;;;121.18;;
64157;SDS011;50449;51.528;5.076;2023-06-10T04:14:59;122.53;;;116.80;;
64157;SDS011;50449;51.528;5.076;2023-06-10T04:17:25;123.05;;;117.35;;
64157;SDS011;50449;51.528;5.076;2023-06-10T04:19:50;127.97;;;121.70;;
64157;SDS011;50449;51.528;5.076;2023-06-10T04:22:17;127.03;;;120.95;;
64157;SDS011;50449;51.528;5.076;2023-06-10T04:24:43;125.75;;;119.15;;
64157;SDS011;50449;51.528;5.076;2023-06-10T04:27:08;123.00;;;116.68;;
64157;SDS011;50449;51.528;5.076;2023-06-10T04:29:33;126.90;;;120.32;;
64157;SDS011;50449;51.528;5.076;2023-06-10T04:31:59;125.25;;;119.20;;
64157;SDS011;50449;51.528;5.076;2023-06-10T04:34:26;120.45;;;114.65;;
64157;SDS011;50449;51.528;5.076;2023-06-10T04:36:52;121.40;;;115.60;;
64157;SDS011;50449;51.528;5.076;2023-06-10T04:39:17;121.63;;;115.93;;
64157;SDS011;50449;51.528;5.076;2023-06-10T04:41:43;123.75;;;117.78;;
64157;SDS011;50449;51.528;5.076;2023-06-10T04:44:08;121.68;;;115.65;;
64157;SDS011;50449;51.528;5.076;2023-06-10T04:46:35;119.40;;;113.70;;
64157;SDS011;50449;51.528;5.076;2023-06-10T04:49:01;119.72;;;113.97;;
64157;SDS011;50449;51.528;5.076;2023-06-10T04:51:27;120.60;;;113.97;;
64157;SDS011;50449;51.528;5.076;2023-06-10T04:53:53;119.05;;;113.28;;
64157;SDS011;50449;51.528;5.076;2023-06-10T04:56:18;118.68;;;112.88;;
64157;SDS011;50449;51.528;5.076;2023-06-10T04:58:45;119.03;;;112.85;;
64157;SDS011;50449;51.528;5.076;2023-06-10T05:01:10;121.32;;;115.63;;
64157;SDS011;50449;51.528;5.076;2023-06-10T05:03:35;120.10;;;114.35;;
64157;SDS011;50449;51.528;5.076;2023-06-10T05:06:01;119.28;;;113.68;;
64157;SDS011;50449;51.528;5.076;2023-06-10T05:08:26;120.15;;;114.22;;
64157;SDS011;50449;51.528;5.076;2023-06-10T05:10:51;117.95;;;112.13;;
64157;SDS011;50449;51.528;5.076;2023-06-10T05:13:17;120.72;;;114.35;;
64157;SDS011;50449;51.528;5.076;2023-06-10T05:15:42;119.60;;;113.90;;
64157;SDS011;50449;51.528;5.076;2023-06-10T05:18:09;121.00;;;115.20;;
64157;SDS011;50449;51.528;5.076;2023-06-10T05:20:37;117.20;;;111.60;;
64157;SDS011;50449;51.528;5.076;2023-06-10T05:23:02;118.47;;;112.90;;
64157;SDS011;50449;51.528;5.076;2023-06-10T05:25:29;114.22;;;108.60;;
64157;SDS011;50449;51.528;5.076;2023-06-10T05:27:55;117.18;;;111.30;;
64157;SDS011;50449;51.528;5.076;2023-06-10T05:30:21;119.53;;;113.63;;
64157;SDS011;50449;51.528;5.076;2023-06-10T05:32:46;117.55;;;111.55;;
64157;SDS011;50449;51.528;5.076;2023-06-10T05:35:11;116.65;;;110.88;;
64157;SDS011;50449;51.528;5.076;2023-06-10T05:37:37;115.05;;;109.50;;
64157;SDS011;50449;51.528;5.076;2023-06-10T05:40:02;115.82;;;110.13;;
64157;SDS011;50449;51.528;5.076;2023-06-10T05:42:29;117.32;;;111.50;;
64157;SDS011;50449;51.528;5.076;2023-06-10T05:44:55;115.75;;;110.30;;
64157;SDS011;50449;51.528;5.076;2023-06-10T05:47:20;117.35;;;110.95;;
64157;SDS011;50449;51.528;5.076;2023-06-10T05:49:45;118.53;;;112.68;;
64157;SDS011;50449;51.528;5.076;2023-06-10T05:52:13;119.90;;;114.00;;
64157;SDS011;50449;51.528;5.076;2023-06-10T05:54:38;122.65;;;116.53;;
64157;SDS011;50449;51.528;5.076;2023-06-10T05:57:04;114.60;;;108.60;;
64157;SDS011;50449;51.528;5.076;2023-06-10T05:59:30;115.28;;;109.30;;
64157;SDS011;50449;51.528;5.076;2023-06-10T06:01:56;116.70;;;110.88;;
64157;SDS011;50449;51.528;5.076;2023-06-10T06:04:21;114.45;;;108.55;;
64157;SDS011;50449;51.528;5.076;2023-06-10T06:06:47;118.50;;;112.90;;
64157;SDS011;50449;51.528;5.076;2023-06-10T06:09:12;114.10;;;108.50;;
64157;SDS011;50449;51.528;5.076;2023-06-10T06:11:37;114.53;;;108.97;;
64157;SDS011;50449;51.528;5.076;2023-06-10T06:14:03;116.20;;;110.63;;
64157;SDS011;50449;51.528;5.076;2023-06-10T06:16:29;114.15;;;108.35;;
64157;SDS011;50449;51.528;5.076;2023-06-10T06:18:54;111.47;;;105.95;;
64157;SDS011;50449;51.528;5.076;2023-06-10T06:21:20;115.10;;;109.07;;
64157;SDS011;50449;51.528;5.076;2023-06-10T06:23:45;115.07;;;109.30;;
64157;SDS011;50449;51.528;5.076;2023-06-10T06:26:11;114.60;;;108.80;;
64157;SDS011;50449;51.528;5.076;2023-06-10T06:28:36;115.63;;;109.93;;
64157;SDS011;50449;51.528;5.076;2023-06-10T06:31:01;114.35;;;108.65;;
64157;SDS011;50449;51.528;5.076;2023-06-10T06:33:27;113.25;;;107.65;;
64157;SDS011;50449;51.528;5.076;2023-06-10T06:35:52;113.45;;;107.82;;
64157;SDS011;50449;51.528;5.076;2023-06-10T06:38:17;112.82;;;107.15;;
64157;SDS011;50449;51.528;5.076;2023-06-10T06:40:43;112.22;;;106.72;;
64157;SDS011;50449;51.528;5.076;2023-06-10T06:43:08;117.90;;;111.90;;
64157;SDS011;50449;51.528;5.076;2023-06-10T06:45:34;113.88;;;108.38;;
64157;SDS011;50449;51.528;5.076;2023-06-10T06:47:59;113.97;;;108.43;;
64157;SDS011;50449;51.528;5.076;2023-06-10T06:50:25;117.65;;;111.75;;
64157;SDS011;50449;51.528;5.076;2023-06-10T06:52:50;118.00;;;112.28;;
64157;SDS011;50449;51.528;5.076;2023-06-10T06:55:16;117.00;;;111.10;;
64157;SDS011;50449;51.528;5.076;2023-06-10T06:57:41;113.38;;;107.65;;
64157;SDS011;50449;51.528;5.076;2023-06-10T07:00:07;113.10;;;107.75;;
64157;SDS011;50449;51.528;5.076;2023-06-10T07:02:34;115.93;;;109.80;;
64157;SDS011;50449;51.528;5.076;2023-06-10T07:05:00;123.60;;;116.32;;
64157;SDS011;50449;51.528;5.076;2023-06-10T07:07:25;118.15;;;112.07;;
64157;SDS011;50449;51.528;5.076;2023-06-10T07:09:51;118.40;;;112.50;;
64157;SDS011;50449;51.528;5.076;2023-06-10T07:12:17;121.10;;;113.13;;
64157;SDS011;50449;51.528;5.076;2023-06-10T07:14:43;115.70;;;109.32;;
64157;SDS011;50449;51.528;5.076;2023-06-10T07:17:09;122.07;;;115.18;;
64157;SDS011;50449;51.528;5.076;2023-06-10T07:19:35;116.25;;;110.60;;
64157;SDS011;50449;51.528;5.076;2023-06-10T07:22:00;115.82;;;109.35;;
64157;SDS011;50449;51.528;5.076;2023-06-10T07:24:26;118.25;;;112.53;;
64157;SDS011;50449;51.528;5.076;2023-06-10T07:26:51;115.55;;;109.90;;
64157;SDS011;50449;51.528;5.076;2023-06-10T07:29:16;117.68;;;111.75;;
64157;SDS011;50449;51.528;5.076;2023-06-10T07:31:42;116.95;;;111.00;;
64157;SDS011;50449;51.528;5.076;2023-06-10T07:34:07;119.55;;;113.85;;
64157;SDS011;50449;51.528;5.076;2023-06-10T07:36:33;119.13;;;113.32;;
64157;SDS011;50449;51.528;5.076;2023-06-10T07:38:58;120.03;;;113.95;;
64157;SDS011;50449;51.528;5.076;2023-06-10T07:41:24;118.72;;;112.55;;
64157;SDS011;50449;51.528;5.076;2023-06-10T07:43:55;121.13;;;115.32;;
64157;SDS011;50449;51.528;5.076;2023-06-10T07:46:21;125.10;;;118.10;;
64157;SDS011;50449;51.528;5.076;2023-06-10T07:48:48;121.70;;;114.63;;
64157;SDS011;50449;51.528;5.076;2023-06-10T07:51:14;118.95;;;113.10;;
64157;SDS011;50449;51.528;5.076;2023-06-10T07:53:41;119.40;;;113.65;;
64157;SDS011;50449;51.528;5.076;2023-06-10T07:56:06;117.47;;;111.97;;
64157;SDS011;50449;51.528;5.076;2023-06-10T07:58:31;121.57;;;115.43;;
64157;SDS011;50449;51.528;5.076;2023-06-10T08:00:57;119.35;;;113.30;;
64157;SDS011;50449;51.528;5.076;2023-06-10T08:03:22;123.50;;;117.43;;
64157;SDS011;50449;51.528;5.076;2023-06-10T08:05:48;120.72;;;114.85;;
64157;SDS011;50449;51.528;5.076;2023-06-10T08:08:13;120.72;;;114.63;;
64157;SDS011;50449;51.528;5.076;2023-06-10T08:10:39;124.43;;;118.20;;
64157;SDS011;50449;51.528;5.076;2023-06-10T08:13:04;121.47;;;115.68;;
64157;SDS011;50449;51.528;5.076;2023-06-10T08:15:29;123.65;;;117.78;;
64157;SDS011;50449;51.528;5.076;2023-06-10T08:17:55;124.22;;;118.38;;
64157;SDS011;50449;51.528;5.076;2023-06-10T08:20:21;129.77;;;123.63;;
64157;SDS011;50449;51.528;5.076;2023-06-10T08:22:47;122.07;;;116.28;;
64157;SDS011;50449;51.528;5.076;2023-06-10T08:25:12;128.27;;;122.18;;
64157;SDS011;50449;51.528;5.076;2023-06-10T08:27:38;128.75;;;122.65;;
64157;SDS011;50449;51.528;5.076;2023-06-10T08:30:03;126.60;;;119.93;;
64157;SDS011;50449;51.528;5.076;2023-06-10T08:32:29;122.70;;;116.40;;
64157;SDS011;50449;51.528;5.076;2023-06-10T08:34:55;122.72;;;116.95;;
64157;SDS011;50449;51.528;5.076;2023-06-10T08:37:20;125.45;;;119.55;;
64157;SDS011;50449;51.528;5.076;2023-06-10T08:39:46;123.55;;;117.60;;
64157;SDS011;50449;51.528;5.076;2023-06-10T08:42:28;125.47;;;119.38;;
64157;SDS011;50449;51.528;5.076;2023-06-10T08:44:59;122.28;;;116.40;;
64157;SDS011;50449;51.528;5.076;2023-06-10T08:49:56;125.50;;;119.40;;
64157;SDS011;50449;51.528;5.076;2023-06-10T08:52:28;128.55;;;122.60;;
64157;SDS011;50449;51.528;5.076;2023-06-10T08:55:04;131.10;;;124.85;;
64157;SDS011;50449;51.528;5.076;2023-06-10T08:57:36;129.38;;;123.15;;
64157;SDS011;50449;51.528;5.076;2023-06-10T09:00:02;132.82;;;126.68;;
64157;SDS011;50449;51.528;5.076;2023-06-10T09:02:28;131.93;;;125.53;;
64157;SDS011;50449;51.528;5.076;2023-06-10T09:04:53;135.00;;;128.90;;
64157;SDS011;50449;51.528;5.076;2023-06-10T09:09:48;132.70;;;126.63;;
64157;SDS011;50449;51.528;5.076;2023-06-10T09:12:14;133.90;;;127.68;;
64157;SDS011;50449;51.528;5.076;2023-06-10T09:14:43;133.45;;;126.90;;
64157;SDS011;50449;51.528;5.076;2023-06-10T09:19:35;134.45;;;127.90;;
64157;SDS011;50449;51.528;5.076;2023-06-10T09:22:01;136.77;;;130.73;;
64157;SDS011;50449;51.528;5.076;2023-06-10T09:24:27;138.48;;;132.30;;
64157;SDS011;50449;51.528;5.076;2023-06-10T09:27:04;137.50;;;131.30;;
64157;SDS011;50449;51.528;5.076;2023-06-10T09:29:31;139.77;;;133.38;;
64157;SDS011;50449;51.528;5.076;2023-06-10T09:31:59;137.65;;;130.98;;
64157;SDS011;50449;51.528;5.076;2023-06-10T09:34:26;147.20;;;140.02;;
64157;SDS011;50449;51.528;5.076;2023-06-10T09:36:51;144.07;;;137.38;;
64157;SDS011;50449;51.528;5.076;2023-06-10T09:39:18;143.43;;;136.73;;
64157;SDS011;50449;51.528;5.076;2023-06-10T09:41:44;143.00;;;136.50;;
64157;SDS011;50449;51.528;5.076;2023-06-10T09:44:11;147.50;;;140.60;;
64157;SDS011;50449;51.528;5.076;2023-06-10T09:46:46;144.48;;;137.57;;
64157;SDS011;50449;51.528;5.076;2023-06-10T09:49:13;146.80;;;140.00;;
64157;SDS011;50449;51.528;5.076;2023-06-10T09:51:52;153.35;;;146.45;;
64157;SDS011;50449;51.528;5.076;2023-06-10T09:54:18;144.52;;;138.13;;
64157;SDS011;50449;51.528;5.076;2023-06-10T09:56:46;143.93;;;137.38;;
64157;SDS011;50449;51.528;5.076;2023-06-10T09:59:12;154.23;;;147.35;;
64157;SDS011;50449;51.528;5.076;2023-06-10T10:01:38;150.50;;;143.90;;
64157;SDS011;50449;51.528;5.076;2023-06-10T10:04:04;150.90;;;143.95;;
64157;SDS011;50449;51.528;5.076;2023-06-10T10:06:29;148.88;;;142.35;;
64157;SDS011;50449;51.528;5.076;2023-06-10T10:08:55;149.80;;;142.85;;
64157;SDS011;50449;51.528;5.076;2023-06-10T10:11:21;152.52;;;145.52;;
64157;SDS011;50449;51.528;5.076;2023-06-10T10:13:48;157.05;;;150.15;;
64157;SDS011;50449;51.528;5.076;2023-06-10T10:16:16;150.65;;;144.02;;
64157;SDS011;50449;51.528;5.076;2023-06-10T10:18:49;156.38;;;149.15;;
64157;SDS011;50449;51.528;5.076;2023-06-10T10:21:21;155.88;;;149.00;;
64157;SDS011;50449;51.528;5.076;2023-06-10T10:24:05;154.57;;;147.52;;
64157;SDS011;50449;51.528;5.076;2023-06-10T10:26:38;154.38;;;147.60;;
64157;SDS011;50449;51.528;5.076;2023-06-10T10:31:44;160.77;;;153.77;;
64157;SDS011;50449;51.528;5.076;2023-06-10T10:34:15;156.73;;;149.98;;
64157;SDS011;50449;51.528;5.076;2023-06-10T10:36:43;160.82;;;153.82;;
64157;SDS011;50449;51.528;5.076;2023-06-10T10:39:10;162.07;;;154.88;;
64157;SDS011;50449;51.528;5.076;2023-06-10T10:41:37;160.27;;;153.23;;
64157;SDS011;50449;51.528;5.076;2023-06-10T10:44:04;164.52;;;157.43;;
64157;SDS011;50449;51.528;5.076;2023-06-10T10:46:41;165.25;;;158.15;;
64157;SDS011;50449;51.528;5.076;2023-06-10T10:49:13;164.57;;;157.40;;
64157;SDS011;50449;51.528;5.076;2023-06-10T10:52:01;164.90;;;157.60;;
64157;SDS011;50449;51.528;5.076;2023-06-10T11:05:09;169.05;;;161.10;;
64157;SDS011;50449;51.528;5.076;2023-06-10T11:07:35;170.25;;;162.75;;
64157;SDS011;50449;51.528;5.076;2023-06-10T11:12:53;173.82;;;166.18;;
64157;SDS011;50449;51.528;5.076;2023-06-10T11:15:23;175.13;;;167.63;;
64157;SDS011;50449;51.528;5.076;2023-06-10T11:18:08;174.30;;;166.80;;
64157;SDS011;50449;51.528;5.076;2023-06-10T11:29:00;180.82;;;172.82;;
64157;SDS011;50449;51.528;5.076;2023-06-10T11:31:49;178.90;;;171.40;;
64157;SDS011;50449;51.528;5.076;2023-06-10T11:34:23;172.63;;;165.23;;
64157;SDS011;50449;51.528;5.076;2023-06-10T11:36:50;175.35;;;168.00;;
64157;SDS011;50449;51.528;5.076;2023-06-10T11:39:16;178.88;;;171.38;;
64157;SDS011;50449;51.528;5.076;2023-06-10T11:41:43;178.32;;;170.75;;
64157;SDS011;50449;51.528;5.076;2023-06-10T11:44:11;180.73;;;173.15;;
64157;SDS011;50449;51.528;5.076;2023-06-10T11:46:39;186.07;;;178.18;;
64157;SDS011;50449;51.528;5.076;2023-06-10T11:49:07;182.13;;;174.23;;
64157;SDS011;50449;51.528;5.076;2023-06-10T11:51:34;182.80;;;175.00;;
64157;SDS011;50449;51.528;5.076;2023-06-10T11:54:01;185.48;;;177.65;;
64157;SDS011;50449;51.528;5.076;2023-06-10T11:56:29;189.48;;;180.93;;
64157;SDS011;50449;51.528;5.076;2023-06-10T12:01:23;192.65;;;184.48;;
64157;SDS011;50449;51.528;5.076;2023-06-10T12:04:01;191.13;;;183.10;;
64157;SDS011;50449;51.528;5.076;2023-06-10T12:06:44;188.88;;;181.02;;
64157;SDS011;50449;51.528;5.076;2023-06-10T12:11:52;189.02;;;181.05;;
64157;SDS011;50449;51.528;5.076;2023-06-10T12:17:21;191.27;;;183.40;;
64157;SDS011;50449;51.528;5.076;2023-06-10T12:19:49;193.77;;;185.75;;
64157;SDS011;50449;51.528;5.076;2023-06-10T12:22:15;190.57;;;182.77;;
64157;SDS011;50449;51.528;5.076;2023-06-10T12:25:00;194.20;;;186.07;;
64157;SDS011;50449;51.528;5.076;2023-06-10T12:27:29;195.20;;;186.88;;
64157;SDS011;50449;51.528;5.076;2023-06-10T12:29:56;190.10;;;181.57;;
64157;SDS011;50449;51.528;5.076;2023-06-10T12:32:43;190.18;;;182.32;;
64157;SDS011;50449;51.528;5.076;2023-06-10T12:35:11;193.32;;;185.25;;
64157;SDS011;50449;51.528;5.076;2023-06-10T12:37:38;196.52;;;188.38;;
64157;SDS011;50449;51.528;5.076;2023-06-10T12:40:06;193.27;;;185.25;;
64157;SDS011;50449;51.528;5.076;2023-06-10T12:42:35;196.57;;;188.60;;
64157;SDS011;50449;51.528;5.076;2023-06-10T12:45:02;197.48;;;189.10;;
64157;SDS011;50449;51.528;5.076;2023-06-10T12:47:32;196.18;;;187.98;;
64157;SDS011;50449;51.528;5.076;2023-06-10T12:50:00;196.85;;;188.70;;
64157;SDS011;50449;51.528;5.076;2023-06-10T12:52:27;197.85;;;189.35;;
64157;SDS011;50449;51.528;5.076;2023-06-10T12:54:53;207.73;;;199.13;;
64157;SDS011;50449;51.528;5.076;2023-06-10T12:57:20;207.70;;;199.07;;
64157;SDS011;50449;51.528;5.076;2023-06-10T12:59:46;204.55;;;196.07;;
64157;SDS011;50449;51.528;5.076;2023-06-10T13:02:17;200.65;;;192.20;;
64157;SDS011;50449;51.528;5.076;2023-06-10T13:04:48;201.40;;;193.23;;
64157;SDS011;50449;51.528;5.076;2023-06-10T13:07:14;204.63;;;195.82;;
64157;SDS011;50449;51.528;5.076;2023-06-10T13:09:40;202.35;;;193.57;;
64157;SDS011;50449;51.528;5.076;2023-06-10T13:12:06;203.82;;;195.43;;
64157;SDS011;50449;51.528;5.076;2023-06-10T13:14:32;204.50;;;196.15;;
64157;SDS011;50449;51.528;5.076;2023-06-10T13:16:58;205.48;;;196.27;;
64157;SDS011;50449;51.528;5.076;2023-06-10T13:19:23;203.65;;;195.32;;
64157;SDS011;50449;51.528;5.076;2023-06-10T13:21:49;204.55;;;196.05;;
64157;SDS011;50449;51.528;5.076;2023-06-10T13:24:14;208.02;;;199.00;;
64157;SDS011;50449;51.528;5.076;2023-06-10T13:26:40;205.73;;;197.27;;
64157;SDS011;50449;51.528;5.076;2023-06-10T13:29:05;208.20;;;199.57;;
64157;SDS011;50449;51.528;5.076;2023-06-10T13:31:33;210.32;;;201.85;;
64157;SDS011;50449;51.528;5.076;2023-06-10T13:33:58;210.20;;;201.70;;
64157;SDS011;50449;51.528;5.076;2023-06-10T13:36:24;208.98;;;200.48;;
64157;SDS011;50449;51.528;5.076;2023-06-10T13:38:49;212.25;;;203.18;;
64157;SDS011;50449;51.528;5.076;2023-06-10T13:41:14;207.25;;;198.88;;
64157;SDS011;50449;51.528;5.076;2023-06-10T13:43:40;210.93;;;202.35;;
64157;SDS011;50449;51.528;5.076;2023-06-10T13:46:06;214.85;;;205.48;;
64157;SDS011;50449;51.528;5.076;2023-06-10T13:48:31;209.13;;;200.57;;
64157;SDS011;50449;51.528;5.076;2023-06-10T13:50:56;213.07;;;204.40;;
64157;SDS011;50449;51.528;5.076;2023-06-10T13:53:22;214.80;;;205.05;;
64157;SDS011;50449;51.528;5.076;2023-06-10T13:55:48;213.60;;;204.82;;
64157;SDS011;50449;51.528;5.076;2023-06-10T13:58:13;213.45;;;204.70;;
64157;SDS011;50449;51.528;5.076;2023-06-10T14:00:38;214.85;;;206.00;;
64157;SDS011;50449;51.528;5.076;2023-06-10T14:03:04;212.25;;;203.55;;
64157;SDS011;50449;51.528;5.076;2023-06-10T14:05:29;210.13;;;201.45;;
64157;SDS011;50449;51.528;5.076;2023-06-10T14:07:55;215.98;;;206.85;;
64157;SDS011;50449;51.528;5.076;2023-06-10T14:10:21;216.25;;;207.07;;
64157;SDS011;50449;51.528;5.076;2023-06-10T14:12:46;214.93;;;206.23;;
64157;SDS011;50449;51.528;5.076;2023-06-10T14:15:12;217.23;;;208.30;;
64157;SDS011;50449;51.528;5.076;2023-06-10T14:17:37;215.98;;;206.95;;
64157;SDS011;50449;51.528;5.076;2023-06-10T14:20:02;216.98;;;208.02;;
64157;SDS011;50449;51.528;5.076;2023-06-10T14:22:29;221.38;;;212.48;;
64157;SDS011;50449;51.528;5.076;2023-06-10T14:24:54;219.40;;;210.27;;
64157;SDS011;50449;51.528;5.076;2023-06-10T14:27:20;222.13;;;213.27;;
64157;SDS011;50449;51.528;5.076;2023-06-10T14:29:45;225.25;;;215.02;;
64157;SDS011;50449;51.528;5.076;2023-06-10T14:32:11;218.93;;;210.02;;
64157;SDS011;50449;51.528;5.076;2023-06-10T14:34:36;228.30;;;218.63;;
64157;SDS011;50449;51.528;5.076;2023-06-10T14:37:03;216.63;;;207.20;;
64157;SDS011;50449;51.528;5.076;2023-06-10T14:39:32;226.70;;;217.30;;
64157;SDS011;50449;51.528;5.076;2023-06-10T14:41:57;220.07;;;210.90;;
64157;SDS011;50449;51.528;5.076;2023-06-10T14:44:23;219.20;;;210.25;;